Portada
METAR-TAF:

METAR-TAF

Aeroports :

Macomb Municipal Airport

Macomb, Illinois, Estats Units d'Amèrica

latitud: 40-31-13N, longitud: 090-39-09W, altitud: 216 m

Observació

L'informe es va fer fa 23 minuts, a les 15:15 UTC
Vent 8 kt del Nord/Nord-Est
Temperatura -2°C
Humitat 80%
Pressió 1024 hPa
Visibilitat: 16.1 km
Cel cobert a una alçada de 1100 ft

METAR: KMQB 221515Z AUTO 03008KT 10SM OVC011 M02/M05 A3025 RMK AO2 T10241049

Hora: 09:38 (15:38 UTC)


TAF: manca

Observacions i pronòstics meteorològics de més de 4000 aeroports (METAR i TAF).

Les estacions disponibles són els punts grocs i vermells al mapa.

Posi el ratolí al punt desitjat per veure el nom de l'estació.

Feu clic per veure les observacions i els pronòstics meteorològics.

Per canviar el mapa: feu clic els botons verds amb una creu de color negre per apropar; al botó verd amb un guió per allunyar la imatge; o en les fletxes verdes per a mapes adjacents.


METAR-TAF: